Terminal Aerodrome Forecast
Issued by NWS

Home | Current Version | Previous Version | Text Only | Print | Product List | Glossary On
Versions: 1 2 3 4 5 6 7 8 9 10 11 12
000
FTUS42 KTBW 031128
TAFLAL
TAF
KLAL 031128Z 0312/0412 VRB04KT P6SM FEW250
     FM031500 VRB05KT P6SM SCT035 SCT150
     FM031800 20004KT P6SM VCTS BKN045CB BKN200
     FM040100 VRB04KT P6SM FEW050 BKN250=

USA.gov is the U.S. government's official web portal to all federal, state and local government web resources and services.